Time;durP1;ratioP1;P1;durP2;ratioP2;P2;SDS_P1;SDS_P2;PMS_P1;PMS_P2;Temp;Humidity;BMP_temperature;BMP_pressure;BME280_temperature;BME280_humidity;BME280_pressure;Samples;Min_cycle;Max_cycle;Signal;HPM_P1;HPM_P2
2023/02/20 00:00:40;;;;;;;4.53;0.40;;;;;;;6.82;100.00;101663.34;4949661;29;20019;-95
2023/02/20 00:03:06;;;;;;;3.03;0.52;;;;;;;6.77;100.00;101637.78;4950202;29;20483;-94
2023/02/20 00:05:32;;;;;;;2.85;0.52;;;;;;;6.81;100.00;101629.16;4934435;29;20023;-96
2023/02/20 00:07:57;;;;;;;4.10;0.57;;;;;;;6.77;100.00;101631.81;4934552;29;20035;-95
2023/02/20 00:10:23;;;;;;;2.40;0.52;;;;;;;6.92;100.00;101635.75;4934425;29;20028;-94
2023/02/20 00:12:50;;;;;;;2.92;0.65;;;;;;;6.94;100.00;101628.88;4934650;29;20079;-96
2023/02/20 00:15:18;;;;;;;4.10;0.85;;;;;;;6.80;100.00;101637.75;4940723;29;20038;-96
2023/02/20 00:17:46;;;;;;;3.60;0.60;;;;;;;6.92;100.00;101620.34;4933821;29;20079;-94
2023/02/20 00:20:14;;;;;;;3.38;0.60;;;;;;;6.94;100.00;101614.31;4953348;29;20076;-96
2023/02/20 00:22:39;;;;;;;3.30;0.70;;;;;;;6.89;100.00;101607.59;4949978;29;20038;-95
2023/02/20 00:25:05;;;;;;;4.70;1.27;;;;;;;6.94;100.00;101626.31;4950719;29;20126;-96
2023/02/20 00:27:31;;;;;;;2.20;0.80;;;;;;;6.85;100.00;101607.69;4953166;29;20027;-95
2023/02/20 00:29:56;;;;;;;2.38;1.00;;;;;;;7.14;100.00;101621.53;4947420;29;20386;-96
2023/02/20 00:32:22;;;;;;;3.30;1.50;;;;;;;6.91;100.00;101598.16;4934066;29;20043;-96
2023/02/20 00:34:47;;;;;;;2.80;0.85;;;;;;;6.85;100.00;101606.81;4934157;29;20028;-95
2023/02/20 00:37:13;;;;;;;9.75;1.40;;;;;;;6.79;100.00;101594.13;4934347;29;20024;-95
2023/02/20 00:39:38;;;;;;;2.70;1.00;;;;;;;6.79;100.00;101597.53;4934728;29;20040;-96
2023/02/20 00:42:04;;;;;;;13.43;1.50;;;;;;;6.91;100.00;101618.69;4934018;29;20032;-94
2023/02/20 00:44:29;;;;;;;3.72;0.73;;;;;;;6.80;100.00;101594.13;4933876;29;20590;-94
2023/02/20 00:46:55;;;;;;;6.72;1.27;;;;;;;6.96;100.00;101599.72;4933683;29;20036;-96
2023/02/20 00:49:20;;;;;;;5.82;1.10;;;;;;;7.03;100.00;101613.25;4934366;29;20055;-93
2023/02/20 00:51:46;;;;;;;6.63;1.17;;;;;;;6.75;100.00;101595.09;4950514;28;20022;-96
2023/02/20 00:54:12;;;;;;;7.55;1.58;;;;;;;6.72;100.00;101578.03;4933631;29;20478;-95
2023/02/20 00:56:37;;;;;;;7.57;1.13;;;;;;;6.72;100.00;101585.75;4934179;29;20071;-96
2023/02/20 00:59:03;;;;;;;8.40;1.00;;;;;;;6.88;100.00;101581.09;4933853;29;20026;-96
2023/02/20 01:01:28;;;;;;;8.82;0.93;;;;;;;6.93;100.00;101589.53;4936289;29;20039;-95
2023/02/20 01:03:54;;;;;;;7.10;1.08;;;;;;;6.97;100.00;101605.69;4937436;29;20027;-96
2023/02/20 01:06:20;;;;;;;4.43;0.90;;;;;;;6.86;100.00;101583.69;4951029;29;20099;-96
2023/02/20 01:08:46;;;;;;;7.88;0.77;;;;;;;6.61;100.00;101580.88;4937362;29;20413;-94
2023/02/20 01:11:11;;;;;;;4.88;1.00;;;;;;;6.85;100.00;101599.97;4937288;29;20509;-96
2023/02/20 01:13:37;;;;;;;7.25;1.13;;;;;;;6.72;100.00;101562.66;4937540;29;20080;-95
2023/02/20 01:16:04;;;;;;;7.32;0.90;;;;;;;6.97;100.00;101601.41;4937127;29;20042;-94
2023/02/20 01:18:30;;;;;;;9.15;0.88;;;;;;;6.73;100.00;101561.78;4937114;29;20462;-96
2023/02/20 01:20:55;;;;;;;6.25;1.08;;;;;;;6.76;100.00;101571.13;4937383;29;20028;-94
2023/02/20 01:23:21;;;;;;;5.47;0.95;;;;;;;6.83;100.00;101576.06;4937068;29;20031;-96
2023/02/20 01:25:47;;;;;;;7.15;1.05;;;;;;;6.74;100.00;101568.59;4937181;29;20482;-95
2023/02/20 01:28:12;;;;;;;8.85;1.35;;;;;;;6.73;100.00;101566.03;4937014;29;20122;-95
2023/02/20 01:30:38;;;;;;;8.15;1.30;;;;;;;6.66;100.00;101557.66;4949599;29;20027;-95
2023/02/20 01:33:03;;;;;;;11.30;2.33;;;;;;;6.94;100.00;101592.94;4937079;29;20027;-95
2023/02/20 01:35:30;;;;;;;9.20;1.58;;;;;;;6.64;100.00;101562.00;4937057;29;20426;-95
2023/02/20 01:37:58;;;;;;;5.50;1.23;;;;;;;6.79;100.00;101569.31;4936794;29;20032;-95
2023/02/20 01:40:24;;;;;;;12.02;1.50;;;;;;;6.66;100.00;101567.94;4936549;29;20059;-94
2023/02/20 01:42:50;;;;;;;6.97;1.65;;;;;;;6.75;100.00;101582.25;4944065;29;20034;-95
2023/02/20 01:45:22;;;;;;;8.77;1.48;;;;;;;6.76;100.00;101587.34;4953819;28;20031;-95
2023/02/20 01:47:48;;;;;;;;;;;;;;;6.81;100.00;101587.25;4950168;29;20038;-94
2023/02/20 01:50:15;;;;;;;4.95;1.25;;;;;;;6.93;100.00;101581.00;4936259;29;19932;-96
2023/02/20 01:52:43;;;;;;;9.13;1.63;;;;;;;6.82;100.00;101558.13;4936362;29;20118;-95
2023/02/20 01:55:16;;;;;;;5.75;1.55;;;;;;;6.78;100.00;101559.94;4936631;29;20043;-95
2023/02/20 01:57:50;;;;;;;8.75;1.40;;;;;;;6.70;100.00;101543.88;4936849;29;20275;-96
2023/02/20 02:00:20;;;;;;;10.25;1.77;;;;;;;6.80;100.00;101544.50;4936451;29;20028;-95
2023/02/20 02:02:55;;;;;;;10.43;1.98;;;;;;;6.66;100.00;101542.28;4938842;29;20035;-95
2023/02/20 02:05:22;;;;;;;7.15;1.25;;;;;;;6.66;100.00;101557.66;4935930;29;20016;-95
2023/02/20 02:07:48;;;;;;;5.80;1.00;;;;;;;6.91;100.00;101555.34;4937628;29;20034;-96
2023/02/20 02:10:17;;;;;;;4.72;0.80;;;;;;;6.94;100.00;101567.28;4936263;29;20083;-96
2023/02/20 02:12:50;;;;;;;8.52;1.08;;;;;;;6.56;100.00;101527.97;4935322;29;20031;-95
2023/02/20 02:15:19;;;;;;;6.05;1.02;;;;;;;6.61;100.00;101529.56;4935777;29;20042;-95
2023/02/20 02:18:20;;;;;;;6.18;1.15;;;;;;;6.79;100.00;101569.31;4937956;29;20030;-96
2023/02/20 02:20:54;;;;;;;10.75;1.85;;;;;;;6.86;100.00;101570.03;4918043;29;20038;-95
2023/02/20 02:23:54;;;;;;;9.52;1.27;;;;;;;6.86;100.00;101570.88;4949247;29;20042;-95
2023/02/20 02:26:43;;;;;;;2.85;0.75;;;;;;;6.83;100.00;101570.94;4954888;29;20078;-96
2023/02/20 02:29:28;;;;;;;10.50;1.55;;;;;;;6.80;100.00;101560.75;4954921;29;20485;-95
2023/02/20 02:32:05;;;;;;;6.07;1.25;;;;;;;6.88;100.00;101560.56;4955092;29;20450;-95
2023/02/20 02:35:02;;;;;;;11.90;1.55;;;;;;;6.69;100.00;101531.94;4949734;29;20486;-96
2023/02/20 02:37:54;;;;;;;7.65;1.02;;;;;;;6.52;100.00;101534.91;4935746;29;20071;-95
2023/02/20 02:40:25;;;;;;;5.93;1.33;;;;;;;6.65;100.00;101555.97;4913727;29;20063;-96
2023/02/20 02:43:07;;;;;;;7.80;0.90;;;;;;;6.62;100.00;101523.53;4935650;29;20038;-95
2023/02/20 02:45:51;;;;;;;3.33;0.93;;;;;;;6.31;100.00;101512.28;4935738;29;20023;-95
2023/02/20 02:48:27;;;;;;;6.50;1.20;;;;;;;6.63;100.00;101550.88;4944749;29;20348;-95
2023/02/20 02:50:59;;;;;;;5.82;0.80;;;;;;;6.56;100.00;101540.78;4954183;28;20131;-96
2023/02/20 02:53:25;;;;;;;;;;;;;;;6.36;100.00;101544.63;4955173;29;20410;-95
2023/02/20 02:55:50;;;;;;;4.55;0.70;;;;;;;6.43;100.00;101525.69;4954584;29;19961;-95
2023/02/20 02:58:17;;;;;;;9.25;1.20;;;;;;;6.37;100.00;101535.25;4954714;29;20102;-95
2023/02/20 03:00:57;;;;;;;8.27;1.08;;;;;;;6.35;100.00;101507.06;4954536;29;20058;-95
2023/02/20 03:03:34;;;;;;;9.98;1.73;;;;;;;6.21;100.00;101498.84;4954137;29;20086;-95
2023/02/20 03:06:05;;;;;;;12.52;1.55;;;;;;;6.40;100.00;101525.75;4936827;29;20379;-96
2023/02/20 03:08:30;;;;;;;6.43;0.87;;;;;;;6.52;100.00;101534.06;4935337;29;20115;-94
2023/02/20 03:11:05;;;;;;;6.13;1.10;;;;;;;6.46;100.00;101526.50;4935179;29;20499;-94
2023/02/20 03:16:28;;;;;;;12.57;1.20;;;;;;;6.44;100.00;101526.53;4936501;29;20098;-95
2023/02/20 03:18:59;;;;;;;9.73;0.82;;;;;;;6.29;100.00;101501.22;4935198;29;20042;-95
2023/02/20 03:21:27;;;;;;;7.90;0.98;;;;;;;6.49;100.00;101503.34;4935322;29;20034;-95
2023/02/20 03:23:58;;;;;;;10.50;1.05;;;;;;;6.32;100.00;101490.91;4934731;29;20036;-95
2023/02/20 03:26:32;;;;;;;3.72;0.95;;;;;;;6.43;100.00;101523.09;4934598;29;20118;-96
2023/02/20 03:29:12;;;;;;;6.95;1.00;;;;;;;6.52;100.00;101523.78;4940852;29;20028;-95
2023/02/20 03:43:24;;;;;;;5.30;0.98;;;;;;;6.66;100.00;101521.75;4939971;29;20578;-95
2023/02/20 03:45:51;;;;;;;7.07;0.98;;;;;;;6.44;100.00;101495.78;4953919;29;20083;-96
2023/02/20 03:48:54;;;;;;;5.47;1.33;;;;;;;6.37;100.00;101495.06;4953742;29;20114;-95
2023/02/20 03:54:07;;;;;;;7.38;1.10;;;;;;;6.46;100.00;101503.41;4955120;29;20121;-95
2023/02/20 03:56:40;;;;;;;3.78;1.15;;;;;;;6.33;100.00;101496.00;4953629;29;20034;-95
2023/02/20 03:59:19;;;;;;;1.23;0.75;;;;;;;6.39;100.00;101513.81;4952610;29;20035;-95
2023/02/20 04:01:48;;;;;;;4.50;0.98;;;;;;;6.26;100.00;101489.31;4941162;29;20035;-95
2023/02/20 04:04:19;;;;;;;4.38;1.00;;;;;;;6.29;100.00;101471.31;4934419;29;20031;-95
2023/02/20 04:06:47;;;;;;;3.05;0.90;;;;;;;6.29;100.00;101489.28;4934274;29;20083;-95
2023/02/20 04:09:19;;;;;;;1.30;0.77;;;;;;;6.26;100.00;101471.38;4934556;29;20035;-94
2023/02/20 04:12:03;;;;;;;6.00;0.88;;;;;;;6.47;100.00;101505.09;4935503;29;20434;-96
2023/02/20 04:14:30;;;;;;;1.23;0.55;;;;;;;6.47;100.00;101494.84;4934280;29;20063;-95
2023/02/20 04:17:02;;;;;;;7.00;0.70;;;;;;;6.55;100.00;101505.75;4964992;28;20039;-95
2023/02/20 04:22:08;;;;;;;6.15;1.10;;;;;;;6.47;100.00;101505.94;4953370;28;20044;-94
2023/02/20 04:24:41;;;;;;;1.55;0.50;;;;;;;6.41;100.00;101508.63;4947063;29;20434;-94
2023/02/20 04:27:08;;;;;;;2.47;0.88;;;;;;;6.38;100.00;101496.72;4953470;29;20043;-96
2023/02/20 04:29:33;;;;;;;1.77;0.70;;;;;;;6.41;100.00;101499.25;4953193;29;20027;-96
2023/02/20 04:31:59;;;;;;;1.60;0.80;;;;;;;6.36;100.00;101465.16;4952306;29;20078;-96
2023/02/20 04:34:24;;;;;;;1.95;0.82;;;;;;;6.55;100.00;101500.63;4953264;28;20030;-95
2023/02/20 04:37:00;;;;;;;3.55;0.70;;;;;;;6.49;100.00;101493.09;4956503;29;20034;-96
2023/02/20 04:39:26;;;;;;;3.15;0.75;;;;;;;6.38;100.00;101476.22;4956992;29;20031;-96
2023/02/20 04:41:51;;;;;;;3.30;0.70;;;;;;;6.38;100.00;101468.53;4957375;29;20035;-96
2023/02/20 04:44:32;;;;;;;2.03;0.75;;;;;;;6.41;100.00;101478.72;4956869;29;20023;-94
2023/02/20 04:47:00;;;;;;;3.47;0.60;;;;;;;6.50;100.00;101493.03;4956808;29;20490;-96
2023/02/20 04:49:26;;;;;;;2.90;1.00;;;;;;;6.55;100.00;101493.78;4957112;29;20038;-95
2023/02/20 04:51:52;;;;;;;3.67;1.13;;;;;;;6.55;100.00;101493.78;4957066;29;20473;-96
2023/02/20 04:54:17;;;;;;;1.73;0.60;;;;;;;6.44;100.00;101462.44;4956572;29;20116;-96
2023/02/20 04:56:43;;;;;;;3.35;0.68;;;;;;;6.47;100.00;101471.78;4956972;29;20035;-95
2023/02/20 04:59:09;;;;;;;4.53;0.90;;;;;;;6.51;100.00;101469.09;4955937;29;20042;-95
2023/02/20 05:01:34;;;;;;;4.95;0.93;;;;;;;6.52;100.00;101478.47;4972486;28;20023;-96
2023/02/20 05:04:00;;;;;;;3.65;0.80;;;;;;;6.53;100.00;101463.91;4956392;29;20023;-96
2023/02/20 05:06:25;;;;;;;6.82;0.63;;;;;;;6.58;100.00;101451.81;4956501;29;20028;-96
2023/02/20 05:08:51;;;;;;;2.92;0.77;;;;;;;6.63;100.00;101466.25;4956615;29;20386;-96
2023/02/20 05:11:17;;;;;;;1.27;0.70;;;;;;;6.58;100.00;101462.06;4956538;29;20453;-96
2023/02/20 05:13:42;;;;;;;2.25;0.63;;;;;;;6.69;100.00;101475.50;4956380;28;20378;-96
2023/02/20 05:16:08;;;;;;;2.70;0.68;;;;;;;6.71;100.00;101489.13;4952537;29;20043;-96
2023/02/20 05:18:34;;;;;;;3.53;0.85;;;;;;;6.56;100.00;101474.09;4937273;29;20039;-95
2023/02/20 05:23:45;;;;;;;5.03;1.02;;;;;;;6.62;100.00;101479.94;4938424;29;20091;-96
2023/02/20 05:26:15;;;;;;;2.40;1.02;;;;;;;6.60;100.00;101480.84;4937324;29;20585;-96
2023/02/20 05:28:41;;;;;;;4.45;1.10;;;;;;;6.67;100.00;101484.94;4937014;29;20562;-95
2023/02/20 05:31:06;;;;;;;3.80;0.88;;;;;;;6.64;100.00;101482.47;4956138;29;20063;-94
2023/02/20 05:33:32;;;;;;;3.42;1.13;;;;;;;6.55;100.00;101472.41;4956015;28;20027;-94
2023/02/20 05:35:58;;;;;;;2.38;1.20;;;;;;;6.63;100.00;101497.03;4956468;29;20473;-95
2023/02/20 05:38:24;;;;;;;3.13;1.20;;;;;;;6.66;100.00;101470.44;4956260;29;20481;-95
2023/02/20 05:40:49;;;;;;;2.95;1.25;;;;;;;6.71;100.00;101481.44;4956058;29;20094;-95
2023/02/20 05:43:16;;;;;;;4.07;0.93;;;;;;;6.79;100.00;101499.19;4956402;28;20039;-94
2023/02/20 05:45:42;;;;;;;2.53;1.20;;;;;;;6.71;100.00;101501.97;4955690;29;20031;-94
2023/02/20 05:48:07;;;;;;;4.15;1.10;;;;;;;6.54;100.00;101471.59;4955544;28;20038;-95
2023/02/20 05:50:33;;;;;;;2.22;1.00;;;;;;;6.49;100.00;101470.03;4955567;29;20035;-95
2023/02/20 05:52:58;;;;;;;6.80;1.95;;;;;;;6.50;100.00;101485.34;4955651;29;20533;-95
2023/02/20 05:55:24;;;;;;;1.95;0.90;;;;;;;6.54;100.00;101479.28;4956096;29;20034;-95
2023/02/20 05:57:49;;;;;;;4.28;1.38;;;;;;;6.62;100.00;101473.97;4955724;29;20027;-94
2023/02/20 06:00:15;;;;;;;5.05;1.33;;;;;;;6.64;100.00;101479.91;4954709;29;20393;-96
2023/02/20 06:02:40;;;;;;;3.00;1.20;;;;;;;6.46;100.00;101447.00;4955650;29;20497;-96
2023/02/20 06:05:06;;;;;;;3.17;1.20;;;;;;;6.55;100.00;101462.16;4955534;28;20054;-96
2023/02/20 06:07:32;;;;;;;3.67;1.55;;;;;;;6.45;100.00;101458.97;4955490;29;20037;-96
2023/02/20 06:09:58;;;;;;;1.90;1.42;;;;;;;6.52;100.00;101478.47;4955371;29;20027;-96
2023/02/20 06:12:23;;;;;;;4.05;1.40;;;;;;;6.42;100.00;101457.31;4955197;29;20541;-96
2023/02/20 06:14:49;;;;;;;2.80;1.70;;;;;;;6.54;100.00;101470.75;4954402;28;20031;-96
2023/02/20 06:17:14;;;;;;;4.50;1.27;;;;;;;6.50;100.00;101458.88;4955273;29;20033;-96
2023/02/20 06:19:40;;;;;;;4.43;1.70;;;;;;;6.56;100.00;101468.97;4955228;29;20090;-96
2023/02/20 06:22:05;;;;;;;6.10;1.55;;;;;;;6.58;100.00;101456.94;4955319;29;20023;-96
2023/02/20 06:24:31;;;;;;;5.97;1.52;;;;;;;6.69;100.00;101474.66;4954904;29;20086;-96
2023/02/20 06:26:57;;;;;;;4.03;1.60;;;;;;;6.66;100.00;101475.56;4955111;29;20453;-96
2023/02/20 06:29:22;;;;;;;6.70;2.00;;;;;;;6.54;100.00;101456.19;4954610;29;20542;-96
2023/02/20 06:31:48;;;;;;;4.50;1.65;;;;;;;6.64;100.00;101465.34;4955093;28;20042;-96
2023/02/20 06:34:15;;;;;;;1.75;1.23;;;;;;;6.55;100.00;101433.94;4954865;29;20034;-96
2023/02/20 06:36:41;;;;;;;3.30;1.50;;;;;;;6.59;100.00;101438.13;4955132;29;20035;-95
2023/02/20 06:39:09;;;;;;;4.75;1.90;;;;;;;6.64;100.00;101446.56;4954946;29;20023;-96
2023/02/20 06:41:34;;;;;;;2.17;1.52;;;;;;;6.70;100.00;101451.50;4954922;29;20031;-96
2023/02/20 06:44:02;;;;;;;3.55;1.80;;;;;;;6.68;100.00;101458.41;4954512;29;20486;-96
2023/02/20 06:46:27;;;;;;;3.05;1.70;;;;;;;6.64;100.00;101451.69;4954764;29;20054;-96
2023/02/20 06:48:56;;;;;;;3.00;1.60;;;;;;;6.64;100.00;101460.22;4954590;29;20054;-96
2023/02/20 06:51:27;;;;;;;3.78;1.85;;;;;;;6.71;100.00;101448.09;4954863;29;20035;-96
2023/02/20 06:53:52;;;;;;;7.03;4.07;;;;;;;6.76;100.00;101461.63;4954586;29;20027;-96
2023/02/20 06:56:25;;;;;;;2.38;1.48;;;;;;;6.95;100.00;101473.97;4954771;29;20027;-96
2023/02/20 06:58:52;;;;;;;3.58;2.08;;;;;;;6.93;100.00;101468.06;4953571;28;20031;-95
2023/02/20 07:01:19;;;;;;;3.10;1.60;;;;;;;6.89;100.00;101462.16;4954598;29;20023;-94
2023/02/20 07:03:47;;;;;;;2.13;1.30;;;;;;;6.95;100.00;101456.00;4954433;29;20050;-94
2023/02/20 07:06:13;;;;;;;1.73;1.23;;;;;;;6.82;100.00;101440.09;4954481;29;20023;-95
2023/02/20 07:08:39;;;;;;;1.52;1.42;;;;;;;6.81;100.00;101429.00;4954389;29;20039;-93
2023/02/20 07:11:05;;;;;;;1.20;1.10;;;;;;;6.95;100.00;101450.88;4954475;29;20044;-94
2023/02/20 07:13:30;;;;;;;5.55;1.35;;;;;;;6.72;100.00;101411.28;4950245;28;20036;-95
2023/02/20 07:15:56;;;;;;;0.95;0.85;;;;;;;6.80;100.00;101411.94;4950187;29;20039;-96
2023/02/20 07:18:22;;;;;;;1.50;1.02;;;;;;;6.88;100.00;101418.56;4955737;29;20031;-95
2023/02/20 07:20:50;;;;;;;2.38;0.90;;;;;;;6.91;100.00;101451.88;4951085;29;20033;-95
2023/02/20 07:23:16;;;;;;;2.53;1.00;;;;;;;6.82;100.00;101435.81;4935859;29;20477;-96
2023/02/20 07:25:42;;;;;;;1.77;1.02;;;;;;;6.88;100.00;101442.53;4943796;29;20023;-95
2023/02/20 07:28:07;;;;;;;1.20;0.73;;;;;;;6.91;100.00;101439.03;4940693;29;20102;-96
2023/02/20 07:30:36;;;;;;;3.28;0.90;;;;;;;7.01;100.00;101437.91;4937422;29;20031;-96
2023/02/20 07:33:02;;;;;;;3.65;0.73;;;;;;;7.19;100.00;101447.66;4946330;28;20027;-95
2023/02/20 07:35:27;;;;;;;1.00;0.77;;;;;;;7.04;100.00;101445.50;4946375;29;20035;-96
2023/02/20 07:37:53;;;;;;;1.20;0.70;;;;;;;6.97;100.00;101432.00;4946488;29;20474;-94
2023/02/20 07:40:18;;;;;;;5.20;0.70;;;;;;;7.09;100.00;101459.06;4942893;29;20090;-96
2023/02/20 07:42:44;;;;;;;1.48;0.75;;;;;;;7.11;100.00;101446.19;4941519;29;20023;-96
2023/02/20 07:45:10;;;;;;;0.75;0.60;;;;;;;7.25;100.00;101450.06;4941728;29;20086;-96
2023/02/20 07:47:36;;;;;;;1.23;0.50;;;;;;;7.24;100.00;101452.69;4943573;29;20114;-96
2023/02/20 07:50:02;;;;;;;3.50;0.63;;;;;;;7.38;100.00;101462.56;4934361;29;20130;-96
2023/02/20 07:52:27;;;;;;;0.93;0.45;;;;;;;7.39;100.00;101456.53;4934489;29;20024;-96
2023/02/20 07:54:53;;;;;;;2.35;0.50;;;;;;;7.45;100.00;101467.50;4937867;29;20367;-96
2023/02/20 07:57:18;;;;;;;5.40;0.63;;;;;;;7.59;100.00;101468.84;4941470;29;20505;-96
2023/02/20 07:59:44;;;;;;;2.30;1.73;;;;;;;7.68;100.00;101479.72;4934194;29;20451;-96
2023/02/20 08:02:09;;;;;;;1.55;0.40;;;;;;;7.56;100.00;101451.81;4933596;29;20052;-96
2023/02/20 08:04:35;;;;;;;1.35;0.43;;;;;;;7.60;100.00;101476.50;4947481;29;20031;-96
2023/02/20 08:07:00;;;;;;;2.85;1.00;;;;;;;7.72;100.00;101470.16;4941680;29;20082;-95
2023/02/20 08:09:26;;;;;;;3.58;0.40;;;;;;;7.62;100.00;101453.34;4937556;29;20386;-96
2023/02/20 08:11:51;;;;;;;2.38;0.55;;;;;;;7.82;100.00;101463.88;4948468;29;20034;-96
2023/02/20 08:14:17;;;;;;;1.40;0.65;;;;;;;7.91;100.00;101465.34;4953040;29;20063;-95
2023/02/20 08:16:43;;;;;;;1.90;0.60;;;;;;;7.86;100.00;101459.50;4950992;29;20043;-95
2023/02/20 08:19:08;;;;;;;1.38;0.65;;;;;;;7.93;100.00;101448.97;4951155;29;20433;-96
2023/02/20 08:21:34;;;;;;;1.80;0.60;;;;;;;8.29;100.00;101486.47;4949777;29;20451;-95
2023/02/20 08:23:59;;;;;;;4.15;0.70;;;;;;;8.31;100.00;101480.38;4941882;29;20023;-96
2023/02/20 08:26:25;;;;;;;1.27;0.50;;;;;;;8.20;100.00;101497.06;4954910;29;20173;-96
2023/02/20 08:28:51;;;;;;;2.05;0.50;;;;;;;8.28;100.00;101470.19;4951706;29;20054;-96
2023/02/20 08:31:18;;;;;;;0.50;0.38;;;;;;;8.46;100.00;101497.13;4956266;29;20047;-96
2023/02/20 08:33:43;;;;;;;1.98;0.68;;;;;;;8.41;100.00;101473.25;4939449;29;20023;-95
2023/02/20 08:36:09;;;;;;;1.08;0.55;;;;;;;8.48;100.00;101472.16;4949004;29;20042;-96
2023/02/20 08:38:37;;;;;;;1.38;0.35;;;;;;;8.78;100.00;101497.81;4953388;28;20059;-95
2023/02/20 08:41:06;;;;;;;1.17;0.30;;;;;;;8.52;100.00;101463.47;4958337;29;20481;-95
2023/02/20 08:43:32;;;;;;;0.85;0.32;;;;;;;8.73;100.00;101466.22;4958214;29;20027;-94
2023/02/20 08:45:58;;;;;;;1.05;0.38;;;;;;;8.82;100.00;101473.63;4958402;29;20023;-94
2023/02/20 08:48:24;;;;;;;1.40;0.40;;;;;;;8.79;100.00;101456.56;4974064;28;20034;-94
2023/02/20 08:50:50;;;;;;;3.92;0.45;;;;;;;8.81;100.00;101468.56;4955238;29;20032;-94
2023/02/20 08:53:15;;;;;;;1.45;0.57;;;;;;;9.06;100.00;101451.34;4954477;29;20031;-95
2023/02/20 08:55:41;;;;;;;0.98;0.47;;;;;;;9.43;100.00;101483.53;4956574;29;20544;-94
2023/02/20 08:58:07;;;;;;;1.73;0.50;;;;;;;9.76;100.00;101481.47;4956704;29;20072;-94
2023/02/20 09:00:32;;;;;;;1.77;0.40;;;;;;;9.66;100.00;101464.69;4946663;29;20505;-95
2023/02/20 09:02:58;;;;;;;0.95;0.40;;;;;;;9.83;100.00;101461.47;4940846;29;20066;-95
2023/02/20 09:05:25;;;;;;;1.13;0.30;;;;;;;9.70;100.00;101450.75;4956066;29;20087;-95
2023/02/20 09:07:51;;;;;;;2.17;0.32;;;;;;;10.08;100.00;101462.19;4949759;29;20577;-94
2023/02/20 09:10:21;;;;;;;1.63;0.45;;;;;;;10.35;100.00;101464.63;4950359;29;20063;-94
2023/02/20 09:12:47;;;;;;;1.55;0.30;;;;;;;10.17;100.00;101471.31;4952613;29;20027;-95
2023/02/20 09:15:16;;;;;;;1.20;0.20;;;;;;;9.95;100.00;101475.59;4953529;29;20484;-94
2023/02/20 09:17:43;;;;;;;0.60;0.28;;;;;;;9.64;100.00;101484.50;4958396;29;20055;-95
2023/02/20 09:20:09;;;;;;;2.97;0.40;;;;;;;9.42;100.00;101458.69;4955857;29;20054;-95
2023/02/20 09:22:35;;;;;;;1.35;0.30;;;;;;;9.35;100.00;101460.63;4956918;28;20510;-95
2023/02/20 09:25:01;;;;;;;0.88;0.20;;;;;;;9.84;100.00;101487.19;4957495;29;20019;-94
2023/02/20 09:27:27;;;;;;;2.65;0.60;;;;;;;9.65;100.00;101474.13;4957907;29;20039;-96
2023/02/20 09:29:52;;;;;;;1.38;0.35;;;;;;;9.57;100.00;101485.63;4957939;29;20085;-95
2023/02/20 09:32:18;;;;;;;3.60;0.40;;;;;;;9.70;100.00;101466.22;4960363;29;20024;-96
2023/02/20 09:34:44;;;;;;;2.55;0.20;;;;;;;9.79;100.00;101468.47;4962246;29;20301;-96
2023/02/20 09:37:10;;;;;;;1.52;0.45;;;;;;;9.90;100.00;101500.72;4955165;29;20400;-96
2023/02/20 09:39:35;;;;;;;1.02;0.20;;;;;;;10.03;100.00;101463.28;4953629;29;20040;-96
2023/02/20 09:42:04;;;;;;;1.55;0.45;;;;;;;10.03;100.00;101504.53;4953620;29;20051;-95
2023/02/20 09:44:57;;;;;;;0.95;0.30;;;;;;;10.15;100.00;101498.91;4937613;29;20023;-96
2023/02/20 09:47:32;;;;;;;1.83;0.40;;;;;;;10.06;100.00;101504.41;4937424;29;20028;-95
2023/02/20 09:50:06;;;;;;;1.05;0.30;;;;;;;9.85;100.00;101473.41;4938775;29;20114;-96
2023/02/20 09:52:39;;;;;;;0.43;0.28;;;;;;;10.11;100.00;101481.88;4955399;29;20030;-96
2023/02/20 09:55:11;;;;;;;0.70;0.30;;;;;;;10.04;100.00;101459.78;4957712;29;20540;-96
2023/02/20 09:57:39;;;;;;;2.45;0.30;;;;;;;10.17;100.00;101458.44;4956011;29;20015;-95
2023/02/20 10:00:13;;;;;;;1.60;0.50;;;;;;;10.16;100.00;101474.78;4956240;29;20036;-95
2023/02/20 10:02:50;;;;;;;0.77;0.30;;;;;;;10.41;100.00;101484.16;4953248;29;20034;-96
2023/02/20 10:05:22;;;;;;;1.30;0.20;;;;;;;10.16;100.00;101473.94;4953036;28;20443;-96
2023/02/20 10:07:50;;;;;;;1.10;0.22;;;;;;;10.34;100.00;101460.38;4953013;29;20486;-95
2023/02/20 10:10:26;;;;;;;0.65;0.20;;;;;;;10.36;100.00;101473.19;4954644;29;20036;-95
2023/02/20 10:13:10;;;;;;;1.27;0.20;;;;;;;10.27;100.00;101480.38;4955686;29;20035;-95
2023/02/20 10:16:01;;;;;;;0.35;0.00;;;;;;;10.54;100.00;101453.56;4972077;28;20023;-95
2023/02/20 10:18:50;;;;;;;0.50;0.20;;;;;;;10.63;100.00;101479.84;4944784;28;20066;-95
2023/02/20 10:21:47;;;;;;;0.30;0.10;;;;;;;10.96;100.00;101476.75;4955948;28;20031;-96
2023/02/20 10:24:48;;;;;;;0.85;0.10;;;;;;;10.94;98.14;101488.88;4955920;28;20027;-96
2023/02/20 10:27:29;;;;;;;1.20;0.20;;;;;;;10.81;98.76;101487.72;4961936;28;20105;-95
2023/02/20 10:29:55;;;;;;;1.55;0.20;;;;;;;10.99;95.81;101461.09;4956265;29;20033;-96
2023/02/20 10:32:29;;;;;;;1.00;0.22;;;;;;;10.79;97.03;101459.38;4957289;28;20031;-95
2023/02/20 10:35:06;;;;;;;0.22;0.10;;;;;;;11.09;97.48;101493.38;4957158;29;20118;-95
2023/02/20 10:37:37;;;;;;;2.17;0.10;;;;;;;11.09;95.40;101470.13;4956364;29;20482;-95
2023/02/20 10:40:18;;;;;;;0.90;0.20;;;;;;;11.07;95.40;101492.63;4955520;29;20035;-96
2023/02/20 10:42:53;;;;;;;0.03;0.00;;;;;;;10.98;95.89;101489.59;4956422;29;20066;-95
2023/02/20 10:45:30;;;;;;;0.45;0.10;;;;;;;11.13;94.62;101481.19;4955516;29;20126;-95
2023/02/20 10:48:05;;;;;;;0.03;0.03;;;;;;;11.79;89.69;101480.84;4955431;29;20118;-96
2023/02/20 10:50:53;;;;;;;1.00;0.10;;;;;;;12.11;86.82;101474.19;4955162;29;20114;-96
2023/02/20 10:53:30;;;;;;;1.27;0.10;;;;;;;11.93;86.34;101468.16;4957397;29;20027;-96
2023/02/20 10:56:24;;;;;;;1.40;0.20;;;;;;;11.89;86.31;101469.19;4951395;29;20036;-95
2023/02/20 10:59:08;;;;;;;0.55;0.20;;;;;;;11.98;87.46;101463.59;4936628;29;20505;-95
2023/02/20 11:01:36;;;;;;;0.20;0.10;;;;;;;12.05;85.52;101468.50;4937415;29;20028;-96
2023/02/20 11:04:16;;;;;;;0.30;0.03;;;;;;;11.98;86.30;101448.06;4940121;29;20485;-94
2023/02/20 11:06:45;;;;;;;1.27;0.10;;;;;;;12.09;84.86;101457.91;4958029;29;20031;-96
2023/02/20 11:09:12;;;;;;;0.10;0.03;;;;;;;11.94;84.82;101453.47;4973583;28;20027;-96
2023/02/20 11:11:46;;;;;;;0.60;0.17;;;;;;;12.04;84.95;101467.63;4957856;29;20019;-96
2023/02/20 11:14:23;;;;;;;0.63;0.10;;;;;;;12.02;83.67;101469.44;4952634;29;20031;-96
2023/02/20 11:17:03;;;;;;;0.10;0.03;;;;;;;11.59;86.37;101435.22;4937215;29;20047;-96
2023/02/20 11:19:40;;;;;;;0.00;0.00;;;;;;;11.83;86.11;101469.47;4936827;29;20159;-96
2023/02/20 11:22:06;;;;;;;1.05;0.10;;;;;;;12.04;85.38;101471.97;4952535;29;20057;-95
2023/02/20 11:24:33;;;;;;;1.25;0.00;;;;;;;12.33;82.78;101466.25;4941011;29;20478;-96
2023/02/20 11:27:24;;;;;;;1.02;0.00;;;;;;;11.79;84.33;101429.13;4952471;29;20394;-95
2023/02/20 11:30:03;;;;;;;0.20;0.05;;;;;;;11.96;83.55;101431.78;4935759;29;20039;-95
2023/02/20 11:32:32;;;;;;;0.47;0.10;;;;;;;12.27;83.77;101479.50;4935745;29;20086;-96
2023/02/20 11:35:22;;;;;;;0.55;0.00;;;;;;;11.99;83.99;101462.66;4962976;28;20019;-96
2023/02/20 11:37:51;;;;;;;0.57;0.10;;;;;;;11.75;85.03;101471.53;4955345;29;20118;-96
2023/02/20 11:40:30;;;;;;;0.22;0.00;;;;;;;11.76;85.99;101465.47;4954554;29;20062;-96
2023/02/20 11:43:14;;;;;;;0.00;0.00;;;;;;;11.76;85.45;101452.53;4953684;29;20174;-96
2023/02/20 11:45:40;;;;;;;0.30;0.10;;;;;;;11.78;85.71;101454.16;4953245;28;20046;-96
2023/02/20 11:48:08;;;;;;;0.00;0.00;;;;;;;12.10;84.02;101461.34;4954120;29;20027;-96
2023/02/20 11:50:45;;;;;;;0.00;0.00;;;;;;;12.13;82.59;101427.56;4952741;29;20031;-96
2023/02/20 11:53:28;;;;;;;0.68;0.10;;;;;;;12.09;82.12;101418.25;4946526;29;20118;-96
2023/02/20 11:56:12;;;;;;;5.18;0.00;;;;;;;12.81;78.74;101436.25;4949424;29;20039;-96
2023/02/20 11:58:39;;;;;;;1.35;0.15;;;;;;;12.52;80.23;101422.16;4941755;29;20023;-95